createdAt,value
2018-09-26T00:02:26.426Z,101300.34
2018-09-26T00:04:55.737Z,101293.89
2018-09-26T00:07:24.609Z,101292.00
2018-09-26T00:10:00.013Z,101274.40
2018-09-26T00:12:28.801Z,101268.34
2018-09-26T00:14:57.618Z,101258.89
2018-09-26T00:17:26.402Z,101255.87
2018-09-26T00:19:55.332Z,101246.63
2018-09-26T00:22:24.136Z,101240.23
2018-09-26T00:24:52.890Z,101249.95
2018-09-26T00:27:22.408Z,101247.08
2018-09-26T00:29:51.175Z,101242.47
2018-09-26T00:32:19.910Z,101227.03
2018-09-26T00:34:49.339Z,101216.12
2018-09-26T00:37:18.404Z,101215.42
2018-09-26T00:39:47.838Z,101207.51
2018-09-26T00:42:16.830Z,101197.20
2018-09-26T00:44:45.719Z,101199.19
2018-09-26T00:47:14.553Z,101188.78
2018-09-26T00:49:43.856Z,101185.73
2018-09-26T00:52:14.015Z,101191.23
2018-09-26T00:54:42.788Z,101180.81
2018-09-26T00:57:11.526Z,101188.35
2018-09-26T00:59:41.125Z,101173.79
2018-09-26T01:02:10.392Z,101184.65
2018-09-26T01:04:39.892Z,101162.46
2018-09-26T01:07:08.690Z,101148.53
2018-09-26T01:09:37.590Z,101161.44
2018-09-26T01:12:07.360Z,101142.66
2018-09-26T01:14:36.360Z,101135.77
2018-09-26T01:17:05.160Z,101116.47
2018-09-26T01:19:34.045Z,101115.45
2018-09-26T01:22:02.787Z,101109.90
2018-09-26T01:24:31.800Z,101103.31
2018-09-26T01:27:01.417Z,101087.54
2018-09-26T01:29:30.304Z,101086.01
2018-09-26T01:31:59.058Z,101081.25
2018-09-26T01:34:28.510Z,101061.66
2018-09-26T01:36:57.284Z,101063.30
2018-09-26T01:39:26.051Z,101063.52
2018-09-26T01:41:55.807Z,101050.94
2018-09-26T01:44:25.461Z,101048.25
2018-09-26T01:46:54.193Z,101036.78
2018-09-26T01:49:22.957Z,101032.88
2018-09-26T01:51:52.218Z,101017.42
2018-09-26T01:54:21.751Z,100994.73
2018-09-26T01:56:50.503Z,100991.53
2018-09-26T01:59:20.151Z,100976.78
2018-09-26T02:01:49.314Z,100980.30
2018-09-26T02:04:20.065Z,100968.41
2018-09-26T02:06:49.315Z,100959.84
2018-09-26T02:09:18.891Z,100960.68
2018-09-26T02:11:48.109Z,100954.80
2018-09-26T02:14:17.230Z,100963.16
2018-09-26T02:16:46.559Z,100960.99
2018-09-26T02:19:15.536Z,100946.36
2018-09-26T02:21:44.368Z,100951.17
2018-09-26T02:24:13.096Z,100941.08
2018-09-26T02:26:42.551Z,100945.42
2018-09-26T02:29:12.039Z,100932.52
2018-09-26T02:31:40.776Z,100919.92
2018-09-26T02:34:09.499Z,100910.33
2018-09-26T02:36:38.364Z,100909.81
2018-09-26T02:39:08.213Z,100902.67
2018-09-26T02:41:37.436Z,100898.34
2018-09-26T02:44:07.183Z,100889.37
2018-09-26T02:46:36.462Z,100881.20
2018-09-26T02:49:06.280Z,100865.93
2018-09-26T02:51:37.668Z,100879.34
2018-09-26T02:54:07.914Z,100889.88
2018-09-26T02:56:37.538Z,100868.42
2018-09-26T02:59:07.115Z,100856.73
2018-09-26T03:01:36.045Z,100843.23
2018-09-26T03:04:05.905Z,100824.25
2018-09-26T03:06:34.691Z,100820.66
2018-09-26T03:09:03.663Z,100820.45
2018-09-26T03:11:32.683Z,100825.62
2018-09-26T03:14:01.430Z,100814.66
2018-09-26T03:16:30.326Z,100807.12
2018-09-26T03:18:59.075Z,100810.63
2018-09-26T03:21:27.966Z,100810.86
2018-09-26T03:23:56.706Z,100792.48
2018-09-26T03:26:25.927Z,100808.86
2018-09-26T03:28:54.712Z,100792.45
2018-09-26T03:31:23.654Z,100790.56
2018-09-26T03:33:52.513Z,100775.90
2018-09-26T03:36:21.301Z,100773.73
2018-09-26T03:38:50.279Z,100777.02
2018-09-26T03:41:20.171Z,100775.23
2018-09-26T03:43:49.307Z,100758.95
2018-09-26T03:46:19.208Z,100749.05
2018-09-26T03:48:48.623Z,100738.41
2018-09-26T03:51:17.962Z,100730.36
2018-09-26T03:53:47.879Z,100718.48
2018-09-26T03:56:17.476Z,100718.61
2018-09-26T03:58:47.178Z,100706.94
2018-09-26T04:01:16.338Z,100714.35
2018-09-26T04:03:46.451Z,100690.94
2018-09-26T04:06:15.234Z,100697.52
2018-09-26T04:08:44.583Z,100678.98
2018-09-26T04:11:13.411Z,100675.16
2018-09-26T04:13:42.272Z,100665.98
2018-09-26T04:16:11.088Z,100651.95
2018-09-26T04:18:39.873Z,100642.77
2018-09-26T04:21:09.068Z,100635.75
2018-09-26T04:23:38.124Z,100626.53
2018-09-26T04:26:07.973Z,100633.64
2018-09-26T04:28:36.996Z,100630.44
2018-09-26T04:31:06.031Z,100623.97
2018-09-26T04:33:34.853Z,100617.78
2018-09-26T04:36:04.046Z,100608.91
2018-09-26T04:38:33.122Z,100606.12
2018-09-26T04:41:02.405Z,100595.85
2018-09-26T04:43:31.517Z,100577.71
2018-09-26T04:46:01.439Z,100562.87
2018-09-26T04:48:30.242Z,100552.98
2018-09-26T04:50:59.440Z,100536.45
2018-09-26T04:53:28.959Z,100534.08
2018-09-26T04:55:58.301Z,100541.72
2018-09-26T04:58:27.604Z,100530.08
2018-09-26T05:00:56.822Z,100537.60
2018-09-26T05:03:25.595Z,100529.56
2018-09-26T05:05:54.860Z,100531.41
2018-09-26T05:08:23.748Z,100532.23
2018-09-26T05:10:52.520Z,100513.47
2018-09-26T05:13:21.469Z,100522.66
2018-09-26T05:15:50.775Z,100506.88
2018-09-26T05:18:19.675Z,100511.80
2018-09-26T05:20:49.087Z,100483.75
2018-09-26T05:23:18.320Z,100485.50
2018-09-26T05:25:48.437Z,100498.08
2018-09-26T05:28:18.218Z,100475.18
2018-09-26T05:30:47.643Z,100471.50
2018-09-26T05:33:16.724Z,100484.39
2018-09-26T05:35:45.708Z,100475.62
2018-09-26T05:38:14.522Z,100471.72
2018-09-26T05:40:43.430Z,100466.98
2018-09-26T05:43:12.252Z,100470.58
2018-09-26T05:45:42.047Z,100456.31
2018-09-26T05:48:10.861Z,100452.30
2018-09-26T05:50:40.368Z,100446.11
2018-09-26T05:53:09.648Z,100427.69
2018-09-26T05:55:39.142Z,100394.59
2018-09-26T05:58:08.572Z,100388.52
2018-09-26T06:00:38.008Z,100381.40
2018-09-26T06:03:07.392Z,100368.06
2018-09-26T06:05:36.766Z,100355.48
2018-09-26T06:08:06.759Z,100342.39
2018-09-26T06:10:36.182Z,100351.56
2018-09-26T06:13:05.090Z,100341.66
2018-09-26T06:15:33.925Z,100353.62
2018-09-26T06:18:02.753Z,100354.09
2018-09-26T06:20:31.684Z,100344.08
2018-09-26T06:23:00.510Z,100347.48
2018-09-26T06:25:30.228Z,100335.48
2018-09-26T06:27:59.489Z,100332.47
2018-09-26T06:30:28.267Z,100314.83
2018-09-26T06:32:57.033Z,100309.93
2018-09-26T06:35:25.855Z,100285.58
2018-09-26T06:37:54.663Z,100300.00
2018-09-26T06:40:23.869Z,100285.03
2018-09-26T06:42:52.817Z,100289.97
2018-09-26T06:45:22.866Z,100280.89
2018-09-26T06:47:52.110Z,100283.33
2018-09-26T06:50:21.636Z,100266.19
2018-09-26T06:52:51.013Z,100243.47
2018-09-26T06:55:20.819Z,100228.07
2018-09-26T06:57:50.132Z,100226.66
2018-09-26T07:00:19.396Z,100214.55
2018-09-26T07:02:48.631Z,100217.16
2018-09-26T07:05:18.657Z,100195.03
2018-09-26T07:07:47.856Z,100207.20
2018-09-26T07:10:17.272Z,100205.69
2018-09-26T07:12:46.564Z,100205.55
2018-09-26T07:15:15.582Z,100186.84
2018-09-26T07:17:44.477Z,100198.49
2018-09-26T07:20:13.336Z,100188.11
2018-09-26T07:22:42.274Z,100178.48
2018-09-26T07:25:11.905Z,100175.36
2018-09-26T07:27:41.522Z,100187.97
2018-09-26T07:30:10.329Z,100177.09
2018-09-26T07:32:39.322Z,100165.39
2018-09-26T07:35:08.256Z,100140.22
2018-09-26T07:37:37.305Z,100110.61
2018-09-26T07:40:06.499Z,100098.16
2018-09-26T07:42:35.347Z,100118.76
2018-09-26T07:45:05.177Z,100101.97
2018-09-26T07:47:33.975Z,100107.53
2018-09-26T07:50:02.802Z,100090.93
2018-09-26T07:52:32.493Z,100082.67
2018-09-26T07:55:01.868Z,100069.90
2018-09-26T07:57:31.288Z,100081.06
2018-09-26T08:00:00.730Z,100066.94
2018-09-26T08:02:29.511Z,100054.97
2018-09-26T08:04:58.380Z,100051.27
2018-09-26T08:07:27.274Z,100049.24
2018-09-26T08:09:56.062Z,100016.73
2018-09-26T08:12:25.262Z,100021.16
2018-09-26T08:14:54.279Z,100015.45
2018-09-26T08:17:23.075Z,100022.11
2018-09-26T08:19:52.055Z,100012.30
2018-09-26T08:22:20.842Z,99991.68
2018-09-26T08:24:49.940Z,99994.78
2018-09-26T08:27:19.474Z,100012.87
2018-09-26T08:29:48.786Z,100008.72
2018-09-26T08:32:17.918Z,100008.91
2018-09-26T08:34:47.174Z,100000.33
2018-09-26T08:37:16.545Z,99992.89
2018-09-26T08:39:45.829Z,100006.41
2018-09-26T08:42:15.501Z,100005.42
2018-09-26T08:44:45.786Z,100007.58
2018-09-26T08:47:14.698Z,100001.99
2018-09-26T08:49:43.589Z,99990.16
2018-09-26T08:52:12.909Z,99982.91
2018-09-26T08:54:42.034Z,100004.73
2018-09-26T08:57:11.690Z,99979.86
2018-09-26T08:59:41.195Z,99957.50
2018-09-26T09:02:09.951Z,99972.31
2018-09-26T09:04:38.986Z,99965.84
2018-09-26T09:07:07.903Z,99967.48
2018-09-26T09:09:36.860Z,99934.61
2018-09-26T09:12:06.008Z,99923.23
2018-09-26T09:14:34.990Z,99936.46
2018-09-26T09:17:03.684Z,99914.34
2018-09-26T09:19:32.510Z,99936.11
2018-09-26T09:22:01.941Z,99935.06
2018-09-26T09:24:31.018Z,99946.88
2018-09-26T09:27:00.553Z,99934.77
2018-09-26T09:29:29.439Z,99937.70
2018-09-26T09:31:58.930Z,99921.55
2018-09-26T09:34:27.763Z,99939.28
2018-09-26T09:36:56.834Z,99938.75
2018-09-26T09:39:25.663Z,99949.34
2018-09-26T09:41:55.778Z,99932.61
2018-09-26T09:44:25.294Z,99934.00
2018-09-26T09:46:54.118Z,99907.90
2018-09-26T09:49:22.956Z,99916.05
2018-09-26T09:51:52.291Z,99899.95
2018-09-26T09:54:21.113Z,99900.77
2018-09-26T09:56:49.874Z,99878.70
2018-09-26T09:59:19.271Z,99883.84
2018-09-26T10:01:48.494Z,99899.23
2018-09-26T10:04:18.204Z,99869.91
2018-09-26T10:06:48.158Z,99856.51
2018-09-26T10:10:19.945Z,99829.67
2018-09-26T10:12:48.938Z,99834.92
2018-09-26T10:15:18.400Z,99843.35
2018-09-26T10:17:47.427Z,99832.16
2018-09-26T10:20:16.644Z,99827.97
2018-09-26T10:22:45.761Z,99810.89
2018-09-26T10:25:15.687Z,99806.97
2018-09-26T10:27:45.232Z,99784.44
2018-09-26T10:30:14.276Z,99774.80
2018-09-26T10:32:43.117Z,99763.50
2018-09-26T10:35:12.865Z,99751.69
2018-09-26T10:37:42.328Z,99807.73
2018-09-26T10:40:11.173Z,99760.84
2018-09-26T10:42:40.301Z,99753.19
2018-09-26T10:45:10.136Z,99764.59
2018-09-26T10:47:39.403Z,99759.02
2018-09-26T10:50:09.247Z,99751.50
2018-09-26T10:52:38.859Z,99755.83
2018-09-26T10:55:08.661Z,99743.23
2018-09-26T10:57:38.141Z,99729.06
2018-09-26T11:00:07.757Z,99726.72
2018-09-26T11:02:37.063Z,99735.22
2018-09-26T11:05:06.401Z,99740.75
2018-09-26T11:07:36.540Z,99728.16
2018-09-26T11:10:05.569Z,99731.10
2018-09-26T11:12:35.511Z,99748.59
2018-09-26T11:15:04.381Z,99735.82
2018-09-26T11:17:33.282Z,99733.31
2018-09-26T11:20:02.095Z,99725.43
2018-09-26T11:22:31.033Z,99741.31
2018-09-26T11:25:00.392Z,99737.73
2018-09-26T11:27:31.123Z,99739.86
2018-09-26T11:30:00.377Z,99717.70
2018-09-26T11:32:29.733Z,99733.26
2018-09-26T11:34:59.021Z,99723.78
2018-09-26T11:37:27.800Z,99731.59
2018-09-26T11:39:56.551Z,99710.54
2018-09-26T11:42:25.409Z,99691.38
2018-09-26T11:44:54.822Z,99695.95
2018-09-26T11:47:24.284Z,99683.00
2018-09-26T11:49:53.088Z,99690.02
2018-09-26T11:52:22.520Z,99676.61
2018-09-26T11:54:51.323Z,99667.48
2018-09-26T11:57:20.633Z,99656.75
2018-09-26T11:59:50.006Z,99657.81
2018-09-26T12:02:19.313Z,99645.39
2018-09-26T12:04:48.544Z,99658.87
2018-09-26T12:07:17.820Z,99629.52
2018-09-26T12:09:47.166Z,99646.83
2018-09-26T12:12:16.429Z,99646.91
2018-09-26T12:14:45.826Z,99636.22
2018-09-26T12:17:14.658Z,99627.37
2018-09-26T12:19:43.578Z,99611.76
2018-09-26T12:22:12.603Z,99638.33
2018-09-26T12:24:42.027Z,99631.59
2018-09-26T12:27:12.113Z,99634.31
2018-09-26T12:29:42.639Z,99618.92
2018-09-26T12:32:12.001Z,99624.28
2018-09-26T12:34:42.310Z,99628.84
2018-09-26T12:37:11.254Z,99628.80
2018-09-26T12:39:40.056Z,99637.39
2018-09-26T12:42:09.527Z,99635.51
2018-09-26T12:44:40.029Z,99643.86
2018-09-26T12:47:09.733Z,99614.42
2018-09-26T12:49:38.711Z,99631.66
2018-09-26T12:52:08.528Z,99651.37
2018-09-26T12:54:37.674Z,99618.72
2018-09-26T12:57:07.225Z,99603.64
2018-09-26T12:59:36.743Z,99614.72
2018-09-26T13:02:05.946Z,99626.08
2018-09-26T13:04:34.838Z,99619.33
2018-09-26T13:07:03.719Z,99620.98
2018-09-26T13:09:32.805Z,99633.16
2018-09-26T13:12:01.884Z,99608.06
2018-09-26T13:14:30.999Z,99642.37
2018-09-26T13:17:00.479Z,99626.45
2018-09-26T13:19:29.273Z,99628.35
2018-09-26T13:21:58.893Z,99636.73
2018-09-26T13:24:27.884Z,99651.59
2018-09-26T13:26:57.739Z,99652.41
2018-09-26T13:29:26.488Z,99643.74
2018-09-26T13:31:55.928Z,99662.11
2018-09-26T13:34:24.770Z,99647.80
2018-09-26T13:36:58.060Z,99642.41
2018-09-26T13:39:27.031Z,99654.03
2018-09-26T13:41:56.256Z,99660.25
2018-09-26T13:44:26.313Z,99648.91
2018-09-26T13:46:56.556Z,99641.63
2018-09-26T13:49:56.018Z,99638.44
2018-09-26T13:52:26.095Z,99660.86
2018-09-26T13:54:55.071Z,99652.51
2018-09-26T13:57:24.788Z,99661.96
2018-09-26T13:59:55.018Z,99660.33
2018-09-26T14:02:24.091Z,99673.78
2018-09-26T14:04:53.735Z,99657.34
2018-09-26T14:07:27.054Z,99644.70
2018-09-26T14:09:56.179Z,99655.52
2018-09-26T14:12:25.149Z,99651.75
2018-09-26T14:14:54.156Z,99667.98
2018-09-26T14:17:23.728Z,99692.02
2018-09-26T14:19:53.607Z,99672.85
2018-09-26T14:22:22.856Z,99675.82
2018-09-26T14:24:52.683Z,99680.69
2018-09-26T14:27:22.265Z,99674.47
2018-09-26T14:29:52.423Z,99690.97
2018-09-26T14:32:21.438Z,99669.61
2018-09-26T14:34:50.920Z,99677.98
2018-09-26T14:37:21.114Z,99668.00
2018-09-26T14:39:50.206Z,99668.53
2018-09-26T14:42:19.415Z,99677.97
2018-09-26T14:44:49.143Z,99677.97
2018-09-26T14:47:19.309Z,99697.20
2018-09-26T14:49:49.280Z,99696.41
2018-09-26T14:52:19.378Z,99688.05
2018-09-26T14:54:49.297Z,99683.20
2018-09-26T14:57:19.395Z,99667.52
2018-09-26T14:59:49.031Z,99667.52
2018-09-26T15:02:19.934Z,99659.95
2018-09-26T15:04:50.330Z,99667.50
2018-09-26T15:07:22.471Z,99657.53
2018-09-26T15:09:53.070Z,99646.98
2018-09-26T15:12:22.227Z,99662.91
2018-09-26T15:14:51.355Z,99655.86
2018-09-26T15:17:22.854Z,99659.63
2018-09-26T15:19:51.794Z,99679.08
2018-09-26T15:22:20.755Z,99681.20
2018-09-26T15:24:50.561Z,99679.58
2018-09-26T15:27:20.497Z,99689.02
2018-09-26T15:29:49.575Z,99695.48
2018-09-26T15:32:19.822Z,99698.73
2018-09-26T15:34:49.643Z,99687.36
2018-09-26T15:37:19.603Z,99691.11
2018-09-26T15:39:48.879Z,99683.52
2018-09-26T15:42:18.559Z,99681.86
2018-09-26T15:44:48.504Z,99714.25
2018-09-26T15:47:19.376Z,99690.19
2018-09-26T15:49:48.672Z,99708.00
2018-09-26T15:52:18.300Z,99717.46
2018-09-26T15:54:47.591Z,99709.05
2018-09-26T15:57:19.814Z,99697.69
2018-09-26T15:59:50.952Z,99699.29
2018-09-26T16:02:20.358Z,99714.64
2018-09-26T16:04:49.329Z,99707.91
2018-09-26T16:07:18.836Z,99725.45
2018-09-26T16:09:48.051Z,99712.20
2018-09-26T16:12:17.256Z,99716.50
2018-09-26T16:14:46.467Z,99725.11
2018-09-26T16:17:16.750Z,99712.37
2018-09-26T16:19:45.623Z,99719.13
2018-09-26T16:22:14.553Z,99714.48
2018-09-26T16:24:43.826Z,99685.31
2018-09-26T16:27:13.160Z,99731.70
2018-09-26T16:29:41.992Z,99725.21
2018-09-26T16:32:11.212Z,99727.06
2018-09-26T16:34:40.241Z,99732.99
2018-09-26T16:37:09.234Z,99748.63
2018-09-26T16:39:38.634Z,99764.53
2018-09-26T16:42:07.764Z,99763.72
2018-09-26T16:44:37.288Z,99771.25
2018-09-26T16:47:07.232Z,99759.88
2018-09-26T16:49:36.253Z,99768.77
2018-09-26T16:52:05.807Z,99783.32
2018-09-26T16:54:34.627Z,99769.54
2018-09-26T16:57:04.098Z,99781.69
2018-09-26T16:59:33.745Z,99783.56
2018-09-26T17:02:02.668Z,99786.76
2018-09-26T17:04:31.541Z,99792.16
2018-09-26T17:07:00.416Z,99781.58
2018-09-26T17:09:29.243Z,99790.23
2018-09-26T17:11:58.209Z,99794.00
2018-09-26T17:14:27.173Z,99794.25
2018-09-26T17:16:56.461Z,99799.89
2018-09-26T17:19:25.376Z,99804.50
2018-09-26T17:21:55.088Z,99812.03
2018-09-26T17:24:23.957Z,99814.20
2018-09-26T17:26:53.550Z,99824.45
2018-09-26T17:29:22.385Z,99830.91
2018-09-26T17:31:51.227Z,99827.97
2018-09-26T17:34:20.190Z,99835.48
2018-09-26T17:36:49.134Z,99827.11
2018-09-26T17:39:18.929Z,99808.44
2018-09-26T17:41:48.448Z,99844.31
2018-09-26T17:44:18.644Z,99852.38
2018-09-26T17:46:47.707Z,99869.62
2018-09-26T17:49:17.716Z,99872.03
2018-09-26T17:51:47.293Z,99876.06
2018-09-26T17:54:17.430Z,99871.98
2018-09-26T17:56:46.869Z,99876.27
2018-09-26T17:59:16.785Z,99866.50
2018-09-26T18:01:45.965Z,99875.65
2018-09-26T18:04:14.836Z,99871.84
2018-09-26T18:06:43.787Z,99877.77
2018-09-26T18:09:15.476Z,99884.79
2018-09-26T18:11:44.404Z,99896.88
2018-09-26T18:14:13.297Z,99892.52
2018-09-26T18:16:43.297Z,99894.40
2018-09-26T18:19:13.644Z,99899.75
2018-09-26T18:21:42.480Z,99917.80
2018-09-26T18:24:11.333Z,99912.89
2018-09-26T18:26:41.023Z,99912.61
2018-09-26T18:29:09.865Z,99924.74
2018-09-26T18:31:39.269Z,99936.05
2018-09-26T18:34:08.137Z,99922.81
2018-09-26T18:36:37.045Z,99936.59
2018-09-26T18:39:08.577Z,99942.51
2018-09-26T18:41:37.667Z,99951.69
2018-09-26T18:45:10.348Z,99957.61
2018-09-26T18:47:39.620Z,99964.06
2018-09-26T18:50:08.668Z,99955.16
2018-09-26T18:52:38.431Z,99965.65
2018-09-26T18:55:07.479Z,99963.48
2018-09-26T18:57:37.079Z,99960.50
2018-09-26T19:00:06.847Z,99966.42
2018-09-26T19:02:35.648Z,99980.95
2018-09-26T19:05:04.734Z,99982.84
2018-09-26T19:07:33.409Z,99984.72
2018-09-26T19:10:02.257Z,99987.66
2018-09-26T19:12:31.191Z,99981.97
2018-09-26T19:15:00.035Z,99981.39
2018-09-26T19:17:29.868Z,99987.05
2018-09-26T19:19:58.704Z,100000.48
2018-09-26T19:22:27.535Z,99998.84
2018-09-26T19:24:57.277Z,100002.30
2018-09-26T19:27:26.809Z,100003.07
2018-09-26T19:29:56.493Z,100011.39
2018-09-26T19:32:25.341Z,100002.20
2018-09-26T19:34:54.329Z,100016.19
2018-09-26T19:37:23.859Z,100014.78
2018-09-26T19:39:53.585Z,100020.94
2018-09-26T19:42:22.457Z,100027.91
2018-09-26T19:44:51.820Z,100038.40
2018-09-26T19:47:21.321Z,100046.43
2018-09-26T19:49:50.253Z,100045.31
2018-09-26T19:52:19.834Z,100056.09
2018-09-26T19:54:48.812Z,100061.72
2018-09-26T19:57:19.284Z,100067.09
2018-09-26T19:59:49.040Z,100062.16
2018-09-26T20:02:18.139Z,100060.77
2018-09-26T20:04:47.531Z,100069.08
2018-09-26T20:07:16.658Z,100076.26
2018-09-26T20:09:45.539Z,100088.84
2018-09-26T20:12:14.515Z,100091.72
2018-09-26T20:14:43.976Z,100097.63
2018-09-26T20:17:13.296Z,100092.45
2018-09-26T20:19:42.184Z,100099.41
2018-09-26T20:22:11.108Z,100091.33
2018-09-26T20:24:40.050Z,100095.61
2018-09-26T20:27:09.507Z,100098.53
2018-09-26T20:29:38.606Z,100101.17
2018-09-26T20:32:07.981Z,100107.31
2018-09-26T20:34:36.954Z,100106.72
2018-09-26T20:37:06.030Z,100107.52
2018-09-26T20:39:34.893Z,100111.19
2018-09-26T20:42:03.680Z,100108.44
2018-09-26T20:44:33.391Z,100114.28
2018-09-26T20:47:02.847Z,100119.61
2018-09-26T20:49:31.724Z,100123.09
2018-09-26T20:52:01.250Z,100124.89
2018-09-26T20:54:31.176Z,100127.81
2018-09-26T20:57:00.553Z,100133.14
2018-09-26T20:59:29.857Z,100143.02
2018-09-26T21:01:58.674Z,100144.00
2018-09-26T21:04:27.546Z,100140.42
2018-09-26T21:06:56.389Z,100142.75
2018-09-26T21:09:25.237Z,100144.55
2018-09-26T21:11:54.547Z,100151.22
2018-09-26T21:14:23.380Z,100157.67
2018-09-26T21:16:52.820Z,100161.41
2018-09-26T21:19:21.652Z,100170.24
2018-09-26T21:21:50.562Z,100165.61
2018-09-26T21:24:19.478Z,100170.41
2018-09-26T21:26:49.150Z,100178.92
2018-09-26T21:29:18.754Z,100188.87
2018-09-26T21:31:48.580Z,100183.19
2018-09-26T21:34:17.659Z,100191.22
2018-09-26T21:36:47.441Z,100191.45
2018-09-26T21:39:16.754Z,100195.19
2018-09-26T21:41:45.567Z,100193.55
2018-09-26T21:44:15.248Z,100193.55
2018-09-26T21:46:44.272Z,100205.05
2018-09-26T21:49:13.944Z,100204.45
2018-09-26T21:51:43.327Z,100201.70
2018-09-26T21:54:12.776Z,100204.61
2018-09-26T21:56:41.606Z,100204.80
2018-09-26T21:59:11.033Z,100211.73
2018-09-26T22:01:39.905Z,100210.63
2018-09-26T22:04:08.920Z,100218.09
2018-09-26T22:06:37.957Z,100228.21
2018-09-26T22:09:08.735Z,100229.25
2018-09-26T22:11:37.729Z,100236.50
2018-09-26T22:14:06.599Z,100233.95
2018-09-26T22:16:35.572Z,100236.05
2018-09-26T22:19:04.394Z,100228.66
2018-09-26T22:21:33.271Z,100233.08
2018-09-26T22:24:02.118Z,100232.41
2018-09-26T22:26:31.967Z,100237.95
2018-09-26T22:29:00.764Z,100241.31
2018-09-26T22:31:30.429Z,100249.73
2018-09-26T22:33:59.203Z,100258.80
2018-09-26T22:36:28.043Z,100257.89
2018-09-26T22:38:56.893Z,100265.57
2018-09-26T22:41:25.695Z,100269.52
2018-09-26T22:43:54.585Z,100264.59
2018-09-26T22:46:24.001Z,100268.05
2018-09-26T22:48:53.526Z,100263.63
2018-09-26T22:51:23.287Z,100264.37
2018-09-26T22:53:52.821Z,100260.99
2018-09-26T22:56:21.587Z,100270.40
2018-09-26T22:58:51.141Z,100279.50
2018-09-26T23:01:19.932Z,100265.19
2018-09-26T23:03:49.572Z,100265.08
2018-09-26T23:06:19.356Z,100269.54
2018-09-26T23:08:48.388Z,100275.44
2018-09-26T23:11:17.330Z,100263.78
2018-09-26T23:13:46.281Z,100274.22
2018-09-26T23:16:15.154Z,100269.62
2018-09-26T23:18:44.008Z,100275.73
2018-09-26T23:21:12.870Z,100281.02
2018-09-26T23:23:41.669Z,100286.38
2018-09-26T23:26:11.219Z,100294.36
2018-09-26T23:28:39.968Z,100288.89
2018-09-26T23:31:09.021Z,100287.47
2018-09-26T23:33:37.966Z,100283.98
2018-09-26T23:36:06.847Z,100286.89
2018-09-26T23:38:35.806Z,100288.67
2018-09-26T23:41:04.685Z,100280.83
2018-09-26T23:43:33.500Z,100289.62
2018-09-26T23:46:03.135Z,100293.34
2018-09-26T23:48:32.643Z,100291.39
2018-09-26T23:51:01.433Z,100295.63
2018-09-26T23:53:30.783Z,100295.36
2018-09-26T23:55:59.548Z,100298.05
2018-09-26T23:58:29.257Z,100298.78
